createdAt,value
2019-03-19T00:00:46.765Z,91.90
2019-03-19T00:03:20.712Z,92.03
2019-03-19T00:05:53.380Z,91.97
2019-03-19T00:08:26.880Z,91.84
2019-03-19T00:10:59.546Z,91.79
2019-03-19T00:13:32.253Z,91.71
2019-03-19T00:16:06.702Z,91.66
2019-03-19T00:18:40.281Z,91.64
2019-03-19T00:21:12.916Z,91.61
2019-03-19T00:23:46.405Z,91.59
2019-03-19T00:26:19.035Z,91.54
2019-03-19T00:28:51.491Z,91.53
2019-03-19T00:31:24.154Z,91.45
2019-03-19T00:33:56.799Z,91.47
2019-03-19T00:36:30.343Z,91.44
2019-03-19T00:39:03.005Z,91.46
2019-03-19T00:41:35.616Z,91.53
2019-03-19T00:44:09.043Z,91.60
2019-03-19T00:46:41.736Z,91.64
2019-03-19T00:49:15.630Z,91.59
2019-03-19T00:51:49.072Z,91.50
2019-03-19T00:54:24.830Z,91.37
2019-03-19T00:56:57.581Z,91.47
2019-03-19T00:59:30.512Z,91.61
2019-03-19T01:02:03.969Z,91.62
2019-03-19T01:04:37.507Z,91.66
2019-03-19T01:07:10.267Z,91.78
2019-03-19T01:09:43.769Z,91.74
2019-03-19T01:12:17.118Z,91.75
2019-03-19T01:14:49.813Z,91.77
2019-03-19T01:17:22.510Z,91.89
2019-03-19T01:19:55.065Z,91.98
2019-03-19T01:22:27.775Z,91.94
2019-03-19T01:25:01.240Z,91.81
2019-03-19T01:27:33.828Z,91.73
2019-03-19T01:30:08.907Z,91.70
2019-03-19T01:32:42.403Z,91.64
2019-03-19T01:35:15.607Z,91.59
2019-03-19T01:37:49.109Z,91.66
2019-03-19T01:40:22.752Z,91.75
2019-03-19T01:42:56.185Z,91.57
2019-03-19T01:45:29.074Z,91.74
2019-03-19T01:48:01.977Z,91.79
2019-03-19T01:50:36.396Z,91.79
2019-03-19T01:53:10.042Z,91.71
2019-03-19T01:55:43.987Z,91.64
2019-03-19T01:58:16.897Z,91.79
2019-03-19T02:00:50.466Z,91.94
2019-03-19T02:03:25.846Z,91.87
2019-03-19T02:06:00.190Z,91.96
2019-03-19T02:08:37.239Z,92.03
2019-03-19T02:11:13.494Z,92.09
2019-03-19T02:13:51.851Z,92.05
2019-03-19T02:16:31.426Z,92.00
2019-03-19T02:19:07.230Z,92.04
2019-03-19T02:21:41.624Z,92.14
2019-03-19T02:24:15.386Z,92.20
2019-03-19T02:26:49.955Z,92.17
2019-03-19T02:29:23.891Z,92.14
2019-03-19T02:31:57.707Z,92.11
2019-03-19T02:34:31.279Z,92.08
2019-03-19T02:37:07.934Z,92.10
2019-03-19T02:39:40.679Z,92.11
2019-03-19T02:42:14.114Z,92.01
2019-03-19T02:44:46.861Z,91.99
2019-03-19T02:47:20.324Z,92.16
2019-03-19T02:49:53.001Z,92.25
2019-03-19T02:52:26.549Z,92.27
2019-03-19T02:55:00.018Z,92.30
2019-03-19T02:57:33.420Z,92.41
2019-03-19T03:00:07.163Z,92.40
2019-03-19T03:02:39.630Z,92.25
2019-03-19T03:05:14.959Z,92.09
2019-03-19T03:07:47.549Z,91.94
2019-03-19T03:10:20.980Z,91.96
2019-03-19T03:12:53.515Z,91.95
2019-03-19T03:15:26.308Z,91.98
2019-03-19T03:17:58.790Z,91.97
2019-03-19T03:20:32.269Z,92.13
2019-03-19T03:23:05.026Z,92.18
2019-03-19T03:25:37.628Z,92.10
2019-03-19T03:28:11.172Z,92.21
2019-03-19T03:30:43.645Z,92.20
2019-03-19T03:33:17.037Z,92.14
2019-03-19T03:35:49.391Z,91.95
2019-03-19T03:38:22.869Z,91.83
2019-03-19T03:40:55.433Z,91.81
2019-03-19T03:43:28.176Z,91.92
2019-03-19T03:46:03.235Z,92.03
2019-03-19T03:48:39.462Z,92.02
2019-03-19T03:51:13.336Z,91.96
2019-03-19T03:53:46.572Z,91.91
2019-03-19T03:56:21.426Z,91.80
2019-03-19T03:59:00.949Z,91.80
2019-03-19T04:01:33.972Z,91.88
2019-03-19T04:04:10.149Z,91.87
2019-03-19T04:06:48.384Z,91.90
2019-03-19T04:09:26.028Z,92.00
2019-03-19T04:12:03.174Z,92.06
2019-03-19T04:14:36.876Z,92.22
2019-03-19T04:17:10.321Z,92.10
2019-03-19T04:19:42.977Z,91.78
2019-03-19T04:22:16.238Z,91.68
2019-03-19T04:24:50.098Z,91.73
2019-03-19T04:27:22.906Z,91.84
2019-03-19T04:29:55.550Z,91.81
2019-03-19T04:32:28.104Z,91.76
2019-03-19T04:35:00.473Z,91.80
2019-03-19T04:37:33.369Z,91.80
2019-03-19T04:40:07.753Z,92.01
2019-03-19T04:42:40.468Z,91.99
2019-03-19T04:45:13.657Z,91.95
2019-03-19T04:47:46.838Z,91.91
2019-03-19T04:50:20.125Z,91.81
2019-03-19T04:52:53.169Z,91.81
2019-03-19T04:55:28.020Z,91.87
2019-03-19T04:58:00.233Z,91.96
2019-03-19T05:00:32.476Z,91.92
2019-03-19T05:03:05.717Z,91.78
2019-03-19T05:05:38.427Z,91.72
2019-03-19T05:08:11.317Z,91.70
2019-03-19T05:10:44.554Z,91.58
2019-03-19T05:13:17.863Z,91.46
2019-03-19T05:15:50.994Z,91.47
2019-03-19T05:18:23.360Z,91.50
2019-03-19T05:20:56.462Z,91.44
2019-03-19T05:23:29.050Z,91.49
2019-03-19T05:26:02.218Z,91.71
2019-03-19T05:28:35.298Z,91.68
2019-03-19T05:31:08.424Z,91.52
2019-03-19T05:33:41.437Z,91.48
2019-03-19T05:36:13.657Z,91.55
2019-03-19T05:38:46.721Z,91.77
2019-03-19T05:41:19.825Z,91.78
2019-03-19T05:43:52.401Z,91.77
2019-03-19T05:46:25.515Z,91.85
2019-03-19T05:48:58.679Z,91.82
2019-03-19T05:51:31.853Z,91.34
2019-03-19T05:54:05.093Z,91.24
2019-03-19T05:56:38.177Z,91.24
2019-03-19T05:59:11.369Z,91.33
2019-03-19T06:01:44.076Z,91.45
2019-03-19T06:04:17.059Z,91.59
2019-03-19T06:06:50.154Z,91.48
2019-03-19T06:09:23.189Z,91.49
2019-03-19T06:11:56.275Z,91.68
2019-03-19T06:14:31.228Z,91.83
2019-03-19T06:17:04.446Z,91.85
2019-03-19T06:19:37.426Z,91.86
2019-03-19T06:22:10.607Z,91.88
2019-03-19T06:24:43.554Z,91.99
2019-03-19T06:27:16.394Z,91.94
2019-03-19T06:29:49.514Z,91.74
2019-03-19T06:32:23.140Z,91.45
2019-03-19T06:34:55.839Z,91.50
2019-03-19T06:37:28.061Z,91.37
2019-03-19T06:40:00.633Z,91.54
2019-03-19T06:42:33.468Z,91.46
2019-03-19T06:45:06.636Z,91.50
2019-03-19T06:47:39.751Z,91.56
2019-03-19T06:50:14.169Z,91.44
2019-03-19T06:52:47.440Z,90.62
2019-03-19T06:55:20.468Z,89.78
2019-03-19T06:57:53.396Z,90.15
2019-03-19T07:00:26.539Z,88.89
2019-03-19T07:02:59.424Z,89.02
2019-03-19T07:05:32.513Z,88.83
2019-03-19T07:08:05.374Z,88.71
2019-03-19T07:10:38.355Z,88.61
2019-03-19T07:13:11.231Z,88.57
2019-03-19T07:15:44.188Z,88.82
2019-03-19T07:18:17.051Z,88.62
2019-03-19T07:20:50.101Z,87.47
2019-03-19T07:23:23.169Z,86.66
2019-03-19T07:28:38.531Z,87.25
2019-03-19T07:31:11.563Z,87.53
2019-03-19T07:33:44.483Z,87.21
2019-03-19T07:36:17.403Z,87.41
2019-03-19T07:38:50.390Z,86.11
2019-03-19T07:41:23.439Z,86.38
2019-03-19T07:43:56.483Z,86.73
2019-03-19T07:46:29.383Z,86.12
2019-03-19T07:49:02.246Z,82.44
2019-03-19T07:51:35.165Z,83.26
2019-03-19T07:54:07.946Z,83.05
2019-03-19T07:56:40.829Z,84.65
2019-03-19T07:59:13.745Z,84.94
2019-03-19T08:01:46.578Z,86.07
2019-03-19T08:04:19.369Z,86.00
2019-03-19T08:06:52.235Z,86.22
2019-03-19T08:09:25.140Z,85.32
2019-03-19T08:11:58.069Z,84.74
2019-03-19T08:14:31.022Z,85.36
2019-03-19T08:17:03.845Z,82.67
2019-03-19T08:19:36.705Z,81.57
2019-03-19T08:22:09.674Z,80.23
2019-03-19T08:24:42.571Z,79.12
2019-03-19T08:27:15.415Z,76.96
2019-03-19T08:29:48.270Z,76.27
2019-03-19T08:32:21.223Z,76.27
2019-03-19T08:34:54.196Z,75.13
2019-03-19T08:37:27.056Z,70.11
2019-03-19T08:39:59.889Z,67.16
2019-03-19T08:42:32.657Z,63.66
2019-03-19T08:45:05.881Z,63.07
2019-03-19T08:47:38.684Z,59.12
2019-03-19T08:50:15.164Z,57.50
2019-03-19T08:52:48.098Z,55.60
2019-03-19T08:55:20.850Z,53.51
2019-03-19T08:57:53.668Z,53.46
2019-03-19T09:00:26.708Z,53.57
2019-03-19T09:02:59.651Z,59.72
2019-03-19T09:05:32.570Z,54.69
2019-03-19T09:08:05.627Z,54.96
2019-03-19T09:10:38.579Z,52.20
2019-03-19T09:13:11.618Z,56.82
2019-03-19T09:15:44.502Z,53.31
2019-03-19T09:18:17.399Z,53.80
2019-03-19T09:20:50.385Z,55.97
2019-03-19T09:23:23.371Z,51.18
2019-03-19T09:25:56.527Z,52.15
2019-03-19T09:28:29.627Z,52.05
2019-03-19T09:31:02.725Z,48.22
2019-03-19T09:33:35.880Z,52.09
2019-03-19T09:36:08.881Z,52.82
2019-03-19T09:38:41.349Z,49.26
2019-03-19T09:41:14.361Z,52.51
2019-03-19T09:43:47.386Z,50.50
2019-03-19T09:46:20.281Z,55.54
2019-03-19T09:48:53.551Z,57.37
2019-03-19T09:51:26.383Z,64.66
2019-03-19T09:53:59.231Z,67.41
2019-03-19T09:56:32.166Z,65.96
2019-03-19T09:59:05.138Z,67.32
2019-03-19T10:01:37.920Z,64.54
2019-03-19T10:04:11.007Z,53.99
2019-03-19T10:06:43.994Z,54.07
2019-03-19T10:09:17.110Z,54.55
2019-03-19T10:11:50.149Z,51.33
2019-03-19T10:14:23.185Z,55.70
2019-03-19T10:16:56.168Z,54.31
2019-03-19T10:19:29.196Z,55.30
2019-03-19T10:22:01.523Z,57.50
2019-03-19T10:24:34.508Z,59.54
2019-03-19T10:27:07.595Z,60.94
2019-03-19T10:29:40.498Z,61.88
2019-03-19T10:32:13.624Z,66.25
2019-03-19T10:34:46.668Z,63.91
2019-03-19T10:37:19.662Z,64.06
2019-03-19T10:39:52.699Z,65.78
2019-03-19T10:42:25.553Z,63.25
2019-03-19T10:44:58.393Z,64.09
2019-03-19T10:47:31.362Z,63.99
2019-03-19T10:50:05.117Z,64.75
2019-03-19T10:52:37.490Z,66.66
2019-03-19T10:55:10.560Z,63.37
2019-03-19T10:57:43.685Z,52.05
2019-03-19T11:00:20.380Z,50.24
2019-03-19T11:02:53.659Z,44.63
2019-03-19T11:05:26.972Z,39.07
2019-03-19T11:08:00.070Z,44.95
2019-03-19T11:10:33.115Z,47.89
2019-03-19T11:13:05.809Z,47.96
2019-03-19T11:15:38.868Z,52.74
2019-03-19T11:18:12.061Z,53.16
2019-03-19T11:20:45.592Z,51.90
2019-03-19T11:23:18.634Z,52.80
2019-03-19T11:25:54.700Z,55.27
2019-03-19T11:28:26.539Z,57.11
2019-03-19T11:30:59.540Z,58.01
2019-03-19T11:33:32.433Z,54.50
2019-03-19T11:36:05.445Z,55.23
2019-03-19T11:38:38.435Z,57.27
2019-03-19T11:41:11.346Z,53.12
2019-03-19T11:43:44.257Z,55.02
2019-03-19T11:46:17.197Z,52.04
2019-03-19T11:48:50.094Z,50.25
2019-03-19T11:51:23.006Z,54.29
2019-03-19T11:53:55.972Z,52.76
2019-03-19T11:56:28.912Z,55.06
2019-03-19T11:59:01.685Z,50.87
2019-03-19T12:01:34.148Z,54.87
2019-03-19T12:04:07.133Z,51.31
2019-03-19T12:06:40.040Z,53.77
2019-03-19T12:09:13.001Z,53.40
2019-03-19T12:11:45.882Z,52.42
2019-03-19T12:14:18.871Z,51.14
2019-03-19T12:16:52.015Z,49.11
2019-03-19T12:19:25.459Z,51.10
2019-03-19T12:21:58.397Z,50.48
2019-03-19T12:24:32.786Z,47.81
2019-03-19T12:27:06.168Z,47.92
2019-03-19T12:29:39.063Z,51.44
2019-03-19T12:32:12.092Z,50.28
2019-03-19T12:34:45.077Z,50.45
2019-03-19T12:37:17.960Z,51.63
2019-03-19T12:39:50.862Z,51.85
2019-03-19T12:42:23.935Z,48.36
2019-03-19T12:44:57.062Z,46.65
2019-03-19T12:47:30.185Z,46.30
2019-03-19T12:50:03.239Z,47.45
2019-03-19T12:52:36.388Z,48.33
2019-03-19T12:55:10.237Z,45.72
2019-03-19T12:57:43.355Z,47.66
2019-03-19T13:00:19.405Z,42.20
2019-03-19T13:02:52.449Z,43.90
2019-03-19T13:05:25.393Z,40.89
2019-03-19T13:07:58.422Z,44.73
2019-03-19T13:10:31.617Z,38.32
2019-03-19T13:13:05.287Z,39.29
2019-03-19T13:15:38.439Z,40.10
2019-03-19T13:18:11.858Z,43.63
2019-03-19T13:20:44.908Z,47.48
2019-03-19T13:23:17.866Z,51.42
2019-03-19T13:25:50.862Z,53.26
2019-03-19T13:28:23.328Z,52.27
2019-03-19T13:30:56.213Z,50.68
2019-03-19T13:33:28.812Z,49.21
2019-03-19T13:36:01.744Z,50.86
2019-03-19T13:38:34.725Z,52.55
2019-03-19T13:41:07.598Z,52.05
2019-03-19T13:43:40.558Z,51.12
2019-03-19T13:46:13.213Z,45.42
2019-03-19T13:48:46.317Z,38.56
2019-03-19T13:51:19.231Z,40.00
2019-03-19T13:53:52.253Z,46.23
2019-03-19T13:56:25.259Z,44.45
2019-03-19T13:58:58.359Z,43.65
2019-03-19T14:01:31.240Z,37.91
2019-03-19T14:04:04.190Z,37.91
2019-03-19T14:06:37.137Z,34.71
2019-03-19T14:09:11.159Z,33.76
2019-03-19T14:11:44.133Z,33.33
2019-03-19T14:14:17.156Z,34.28
2019-03-19T14:16:50.160Z,34.55
2019-03-19T14:19:23.201Z,38.37
2019-03-19T14:21:56.157Z,42.40
2019-03-19T14:24:29.106Z,41.63
2019-03-19T14:27:02.053Z,47.07
2019-03-19T14:29:35.129Z,48.42
2019-03-19T14:32:08.064Z,50.66
2019-03-19T14:34:40.968Z,49.35
2019-03-19T14:37:13.827Z,50.19
2019-03-19T14:39:46.640Z,50.39
2019-03-19T14:42:19.782Z,49.54
2019-03-19T14:44:52.810Z,50.22
2019-03-19T14:47:28.139Z,49.76
2019-03-19T14:50:00.329Z,50.62
2019-03-19T14:52:33.312Z,50.96
2019-03-19T14:55:07.014Z,45.79
2019-03-19T14:57:39.995Z,45.77
2019-03-19T15:00:15.824Z,46.11
2019-03-19T15:02:48.830Z,46.05
2019-03-19T15:05:21.938Z,45.05
2019-03-19T15:07:55.041Z,42.45
2019-03-19T15:10:28.453Z,41.50
2019-03-19T15:13:01.474Z,41.60
2019-03-19T15:15:34.500Z,40.90
2019-03-19T15:18:07.771Z,45.55
2019-03-19T15:20:40.703Z,43.87
2019-03-19T15:23:13.749Z,46.61
2019-03-19T15:25:46.724Z,46.88
2019-03-19T15:28:19.543Z,46.79
2019-03-19T15:30:52.441Z,49.46
2019-03-19T15:33:25.396Z,49.14
2019-03-19T15:35:58.421Z,46.95
2019-03-19T15:38:31.399Z,49.66
2019-03-19T15:41:04.468Z,49.14
2019-03-19T15:43:37.547Z,50.21
2019-03-19T15:46:10.654Z,48.62
2019-03-19T15:48:43.557Z,50.46
2019-03-19T15:51:16.502Z,46.82
2019-03-19T15:53:49.322Z,46.56
2019-03-19T15:56:22.129Z,48.40
2019-03-19T15:58:55.042Z,46.29
2019-03-19T16:01:28.034Z,47.66
2019-03-19T16:04:00.916Z,46.00
2019-03-19T16:06:33.976Z,47.85
2019-03-19T16:09:09.989Z,46.57
2019-03-19T16:11:43.018Z,43.36
2019-03-19T16:14:15.635Z,44.33
2019-03-19T16:16:48.567Z,44.51
2019-03-19T16:19:21.400Z,44.07
2019-03-19T16:21:54.333Z,44.77
2019-03-19T16:24:26.797Z,46.66
2019-03-19T16:27:00.226Z,44.62
2019-03-19T16:29:33.121Z,46.82
2019-03-19T16:32:06.138Z,45.54
2019-03-19T16:34:40.014Z,47.11
2019-03-19T16:37:12.948Z,45.68
2019-03-19T16:39:45.788Z,46.01
2019-03-19T16:42:18.648Z,47.84
2019-03-19T16:44:51.587Z,46.44
2019-03-19T16:47:24.490Z,46.09
2019-03-19T16:49:57.448Z,48.12
2019-03-19T16:52:30.403Z,49.25
2019-03-19T16:55:05.156Z,47.52
2019-03-19T16:57:38.032Z,49.23
2019-03-19T17:00:15.007Z,49.64
2019-03-19T17:02:48.021Z,50.07
2019-03-19T17:05:21.224Z,52.09
2019-03-19T17:07:53.849Z,54.46
2019-03-19T17:10:26.843Z,53.28
2019-03-19T17:12:59.700Z,54.74
2019-03-19T17:15:32.684Z,56.01
2019-03-19T17:18:05.808Z,54.47
2019-03-19T17:20:38.791Z,55.50
2019-03-19T17:23:13.145Z,57.68
2019-03-19T17:25:46.186Z,59.89
2019-03-19T17:28:22.690Z,59.83
2019-03-19T17:30:54.244Z,64.50
2019-03-19T17:33:28.640Z,61.95
2019-03-19T17:36:01.490Z,64.18
2019-03-19T17:38:34.478Z,64.54
2019-03-19T17:41:07.616Z,66.31
2019-03-19T17:43:40.549Z,68.52
2019-03-19T17:46:13.737Z,69.54
2019-03-19T17:48:46.545Z,69.70
2019-03-19T17:51:19.907Z,70.44
2019-03-19T17:53:52.924Z,70.86
2019-03-19T17:56:25.811Z,71.32
2019-03-19T17:58:58.732Z,71.58
2019-03-19T18:01:31.649Z,71.87
2019-03-19T18:04:04.698Z,72.01
2019-03-19T18:06:37.688Z,72.28
2019-03-19T18:09:10.714Z,72.67
2019-03-19T18:11:43.632Z,73.24
2019-03-19T18:14:16.460Z,72.89
2019-03-19T18:16:49.334Z,73.65
2019-03-19T18:19:22.226Z,74.30
2019-03-19T18:21:55.387Z,74.95
2019-03-19T18:24:28.327Z,75.09
2019-03-19T18:27:01.472Z,75.17
2019-03-19T18:29:34.475Z,75.33
2019-03-19T18:32:07.618Z,75.87
2019-03-19T18:35:03.433Z,75.57
2019-03-19T18:37:20.322Z,75.55
2019-03-19T18:39:53.472Z,75.98
2019-03-19T18:42:26.432Z,76.62
2019-03-19T18:44:59.463Z,77.38
2019-03-19T18:47:32.497Z,77.48
2019-03-19T18:50:07.099Z,77.64
2019-03-19T18:52:39.701Z,77.60
2019-03-19T18:55:12.828Z,77.32
2019-03-19T18:57:45.822Z,77.54
2019-03-19T19:00:19.505Z,77.66
2019-03-19T19:02:52.443Z,77.71
2019-03-19T19:05:25.425Z,78.04
2019-03-19T19:07:58.494Z,78.78
2019-03-19T19:10:31.419Z,78.90
2019-03-19T19:13:04.530Z,78.78
2019-03-19T19:15:37.164Z,78.99
2019-03-19T19:18:10.520Z,79.49
2019-03-19T19:20:43.272Z,79.86
2019-03-19T19:23:16.261Z,79.89
2019-03-19T19:25:49.248Z,79.84
2019-03-19T19:28:21.861Z,80.01
2019-03-19T19:30:54.926Z,80.40
2019-03-19T19:33:28.015Z,81.04
2019-03-19T19:36:01.058Z,81.20
2019-03-19T19:38:34.118Z,81.34
2019-03-19T19:41:07.257Z,81.31
2019-03-19T19:43:40.098Z,81.20
2019-03-19T19:46:13.380Z,81.60
2019-03-19T19:48:46.405Z,81.52
2019-03-19T19:51:19.363Z,81.64
2019-03-19T19:53:52.362Z,81.96
2019-03-19T19:56:25.022Z,81.52
2019-03-19T19:58:58.131Z,81.63
2019-03-19T20:01:31.151Z,81.25
2019-03-19T20:04:04.233Z,80.75
2019-03-19T20:06:37.238Z,80.38
2019-03-19T20:09:10.745Z,80.17
2019-03-19T20:11:43.746Z,80.18
2019-03-19T20:14:16.721Z,80.30
2019-03-19T20:16:49.830Z,80.23
2019-03-19T20:19:22.966Z,80.26
2019-03-19T20:21:56.034Z,80.06
2019-03-19T20:24:30.898Z,79.77
2019-03-19T20:27:04.006Z,79.98
2019-03-19T20:29:37.232Z,80.30
2019-03-19T20:32:10.842Z,80.47
2019-03-19T20:34:45.818Z,81.05
2019-03-19T20:37:18.799Z,81.31
2019-03-19T20:39:51.797Z,80.87
2019-03-19T20:42:24.656Z,80.95
2019-03-19T20:44:57.617Z,80.93
2019-03-19T20:47:30.528Z,80.47
2019-03-19T20:50:03.632Z,80.10
2019-03-19T20:52:36.318Z,80.10
2019-03-19T20:55:09.691Z,80.15
2019-03-19T20:57:42.853Z,80.33
2019-03-19T21:00:17.432Z,80.96
2019-03-19T21:02:50.117Z,82.84
2019-03-19T21:05:22.885Z,83.46
2019-03-19T21:07:55.963Z,83.59
2019-03-19T21:10:29.045Z,84.17
2019-03-19T21:13:02.080Z,84.71
2019-03-19T21:15:35.187Z,84.72
2019-03-19T21:18:08.406Z,84.99
2019-03-19T21:20:41.335Z,84.70
2019-03-19T21:23:13.817Z,83.49
2019-03-19T21:25:46.746Z,83.13
2019-03-19T21:28:19.698Z,82.80
2019-03-19T21:30:52.694Z,82.69
2019-03-19T21:33:25.717Z,83.42
2019-03-19T21:35:58.633Z,83.67
2019-03-19T21:38:31.648Z,84.71
2019-03-19T21:41:04.608Z,84.84
2019-03-19T21:43:38.176Z,84.66
2019-03-19T21:46:11.511Z,84.58
2019-03-19T21:48:44.423Z,84.48
2019-03-19T21:51:17.450Z,84.76
2019-03-19T21:53:50.416Z,84.92
2019-03-19T21:56:23.285Z,85.34
2019-03-19T21:58:56.292Z,85.47
2019-03-19T22:01:29.114Z,85.00
2019-03-19T22:04:03.273Z,84.74
2019-03-19T22:06:36.754Z,84.64
2019-03-19T22:09:09.984Z,84.59
2019-03-19T22:11:43.197Z,84.86
2019-03-19T22:14:16.276Z,84.75
2019-03-19T22:16:49.294Z,85.20
2019-03-19T22:19:22.379Z,85.76
2019-03-19T22:21:55.341Z,85.91
2019-03-19T22:24:28.275Z,85.85
2019-03-19T22:27:01.384Z,85.71
2019-03-19T22:29:34.266Z,85.53
2019-03-19T22:32:07.362Z,85.32
2019-03-19T22:34:40.352Z,85.22
2019-03-19T22:37:13.432Z,84.53
2019-03-19T22:39:45.941Z,84.81
2019-03-19T22:42:18.735Z,85.00
2019-03-19T22:44:51.673Z,84.92
2019-03-19T22:47:24.754Z,85.41
2019-03-19T22:49:57.753Z,85.80
2019-03-19T22:52:30.435Z,85.80
2019-03-19T22:55:06.944Z,85.98
2019-03-19T22:57:39.689Z,86.29
2019-03-19T23:00:41.099Z,86.33
2019-03-19T23:03:14.249Z,86.23
2019-03-19T23:05:47.266Z,86.04
2019-03-19T23:08:20.161Z,85.69
2019-03-19T23:10:53.228Z,85.49
2019-03-19T23:13:25.907Z,85.32
2019-03-19T23:15:58.712Z,85.38
2019-03-19T23:18:31.447Z,85.95
2019-03-19T23:21:05.337Z,86.24
2019-03-19T23:23:39.463Z,86.59
2019-03-19T23:26:12.959Z,86.95
2019-03-19T23:28:50.051Z,86.93
2019-03-19T23:31:31.842Z,86.91
2019-03-19T23:34:12.488Z,86.48
2019-03-19T23:37:11.638Z,86.27
2019-03-19T23:39:40.098Z,86.24
2019-03-19T23:42:59.779Z,86.68
2019-03-19T23:45:43.151Z,86.67
2019-03-19T23:48:21.161Z,86.75
2019-03-19T23:58:22.721Z,86.35
